Terminal Aerodrome Forecast
Issued by NWS

Home | Current Version | Previous Version | Text Only | Print | Product List | Glossary On
Versions: 1 2 3 4 5 6 7 8 9 10 11 12 13
000
FTUS42 KTBW 301120
TAFLAL
TAF
KLAL 301120Z 3012/3112 00000KT P6SM SCT250
     FM301500 VRB05KT P6SM VCTS SCT025CB SCT070 BKN250
     FM301800 24006KT P6SM VCTS SCT030CB BKN050
     FM310100 VRB03KT P6SM FEW035 SCT070 BKN250=

USA.gov is the U.S. government's official web portal to all federal, state and local government web resources and services.